METAR v bližini

 

LJLJ - Ljubljana/Brnik, Slovenia
Oddaljenost od postaje: Z 41km
Podatki zajeti: 24/11/2017 06:00
Jasno
Jasno
 Veter iz smeri VJV
Veter: VJV 4 km/h
Temperatura: -1°C
Rosišče: -2°C
Vlažnost: 93%
Tlak: 1021 hPa
Stanje: Jasno
Vidljivost: večja od 10 km
2017/11/24 05:00 LJLJ 240500Z 12002KT CAVOK M01/M02 Q1021 R30/CLRD// NOSIG
LJMB - Maribor, Slovenia
Oddaljenost od postaje: SV 63km
Podatki zajeti: 24/11/2017 06:00
Jasno
Jasno
 Veter iz smeri JJV
Veter: JJV 4 km/h
Temperatura: 1°C
Rosišče: -1°C
Vlažnost: 87%
Tlak: 1019 hPa
Stanje: Jasno
Vidljivost: večja od 10 km
2017/11/24 05:00 LJMB 240500Z 16002KT CAVOK 01/M01 Q1019
 
LJPZ - Portoroz, Slovenia
Oddaljenost od postaje: JZ 130km
Podatki zajeti: 24/11/2017 06:00
Meglica, Rahlo oblačno
Meglica, Rahlo oblačno
 Veter iz smeri VJV
Veter: VJV 13 km/h
Temperatura: 8°C
Občutek mraza zaradi vetra: 6°C
Rosišče: 7°C
Vlažnost: 93%
Tlak: 1022 hPa
Stanje: Meglica
Oblačnost: Rahlo oblačno
Vidljivost: 5 km
Podrobnosti o oblakih: Rahlo oblačno 518 m
2017/11/24 05:00 LJPZ 240500Z 12007KT 5000 BR FEW017 08/07 Q1022
LJCE - Cerklje, Slovenia
Oddaljenost od postaje: VJV 49km
Podatki zajeti: 24/11/2017 06:00
Jasno
Jasno
 Veter iz smeri Z
Veter: Z 17 km/h
Temperatura: 8°C
Občutek mraza zaradi vetra: 5°C
Rosišče: 5°C
Vlažnost: 82%
Tlak: 1019 hPa
Stanje: Jasno
Vidljivost: večja od 10 km
2017/11/24 05:00 LJCE 240500Z 26009KT 230V290 CAVOK 08/05 Q1019
 
LDZA - Zagreb/Pleso, Croatia
Oddaljenost od postaje: VJV 96km
Podatki zajeti: 24/11/2017 06:00
Jasno
Jasno
 Veter iz smeri JZ
Veter: JZ 11 km/h
Temperatura: 5°C
Občutek mraza zaradi vetra: 2°C
Rosišče: 3°C
Vlažnost: 87%
Tlak: 1019 hPa
Stanje: Jasno
Vidljivost: večja od 10 km
2017/11/24 05:00 LDZA 240500Z 22006KT CAVOK 05/03 Q1019 NOSIG
LDRI - Rijeka/Omisalj, Croatia
Oddaljenost od postaje: JJZ 109km
Podatki zajeti: 24/11/2017 06:00
Delno oblačno
Delno oblačno
 Veter iz smeri calm
Veter: Tišina
Temperatura: 9°C
Rosišče: 8°C
Vlažnost: 94%
Tlak: 1021 hPa
Oblačnost: Delno oblačno
Vidljivost: 10 km
Podrobnosti o oblakih: Delno oblačno 1219 m
2017/11/24 05:00 LDRI 240500Z 00000KT 9999 SCT040 09/08 Q1021
 
LDPL - Pula, Croatia
Oddaljenost od postaje: JJZ 164km
Podatki zajeti: 24/11/2017 06:00
Rahlo oblačno
Rahlo oblačno
 Veter iz smeri SV
Veter: SV 6 km/h
Temperatura: 10°C
Rosišče: 9°C
Vlažnost: 94%
Tlak: 1021 hPa
Oblačnost: Rahlo oblačno
Vidljivost: 7 km
Podrobnosti o oblakih: Rahlo oblačno 457 m
2017/11/24 05:00 LDPL 240500Z 05003KT 7000 FEW015 10/09 Q1021 NOSIG
LOWK - Klagenfurt(Civ/M, Austria
Oddaljenost od postaje: SZ 76km
Podatki zajeti: 24/11/2017 06:20
Jasno
Jasno
 Veter iz smeri SZ
Veter: SZ 7 km/h
Temperatura: -2°C
Občutek mraza zaradi vetra: -6°C
Rosišče: -2°C
Vlažnost: 100%
Tlak: 1022 hPa
Oblačnost: Jasno
Vidljivost: 10 km
2017/11/24 05:20 LOWK 240520Z AUTO 31004KT 9999 NCD M02/M02 Q1022 TEMPO 4000 BR
 
LOWG - Graz (mil/Civ), Austria
Oddaljenost od postaje: SSV 100km
Podatki zajeti: 24/11/2017 06:20
Plitva megla, Rahlo oblačno
Plitva megla, Rahlo oblačno
 Veter iz smeri V
Veter: V 4 km/h
Temperatura: -3°C
Rosišče: -3°C
Vlažnost: 100%
Tlak: 1019 hPa
Stanje: Plitva megla
Oblačnost: Rahlo oblačno
Vidljivost: 10 km
Podrobnosti o oblakih: Rahlo oblačno 9144 m
2017/11/24 05:20 LOWG 240520Z 10002KT 9999 R17/P1500U R35/0650U MIFG FEW300 M03/M03 Q1019 NOSIG
LOWZ - Zell Am See, Austria
Oddaljenost od postaje: SZ 211km
Podatki zajeti: 31/12/2016 17:00
Ni posodobljen
Jasno
Jasno
 Veter iz smeri spremenljiv
Veter: spremenljiv 4 km/h
Temperatura: -4°C
Rosišče: -7°C
Vlažnost: 80%
Tlak: 1031 hPa
Oblačnost: Jasno
2016/12/31 16:00 LOWZ 311600Z VRB02KT 50KM SKC M04/M07 Q1031
 
LOAN - Wr.neustadt East, Austria
Oddaljenost od postaje: SSV 212km
Podatki zajeti: 23/11/2017 16:00
Ni posodobljen
Megla, Oblačno
Megla, Oblačno
 Veter iz smeri JJZ
Veter: JJZ 9 km/h
Stanje: Megla
Oblačnost: Oblačno
Vidljivost: 1 km
Podrobnosti o oblakih: Oblačno 122 m
2017/11/23 15:00 LOAN 231500Z 20005KT 0900 FG VV004
LIPQ - Ronchi Legionari, Italy
Oddaljenost od postaje: JZ 35km
Podatki zajeti: 24/11/2017 06:20
Pretežno oblačno
Pretežno oblačno
 Veter iz smeri S
Veter: S 6 km/h
Temperatura: 9°C
Rosišče: 8°C
Vlažnost: 94%
Tlak: 1021 hPa
Oblačnost: Pretežno oblačno
Vidljivost: 8 km
Podrobnosti o oblakih: Pretežno oblačno 914 m
2017/11/24 05:20 LIPQ 240520Z 35003KT 8000 BKN030 09/08 Q1021
 
LIVT - Trieste, Italy
Oddaljenost od postaje: ZJZ 109km
Podatki zajeti: 24/11/2017 05:55
Jasno
Jasno
 Veter iz smeri SV
Veter: SV 6 km/h
Temperatura: 10°C
Rosišče: 8°C
Vlažnost: 88%
Tlak: 1021 hPa
Stanje: Jasno
Vidljivost: večja od 10 km
2017/11/24 04:55 LIVT 240455Z 05003KT CAVOK 10/08 Q1021 RMK SCT SCT200 QUK / QUL / VIS MAR 12 KM VIS MIN 9999
LIVO - Tarvisio, Italy
Oddaljenost od postaje: SSZ 49km
Podatki zajeti: 23/11/2017 18:55
Ni posodobljen
Jasno
Jasno
 Veter iz smeri ZSZ
Veter: ZSZ 15 km/h
Temperatura: 5°C
Občutek mraza zaradi vetra: 2°C
Rosišče: 2°C
Vlažnost: 81%
Tlak: 1018 hPa
Stanje: Jasno
Vidljivost: večja od 10 km
2017/11/23 17:55 LIVO 231755Z 30008KT CAVOK 05/02 Q1018 RMK SKC VIS MIN 9999
 
LIPZ - Venezia/Tessera, Italy
Oddaljenost od postaje: ZJZ 217km
Podatki zajeti: 24/11/2017 06:20
Delno oblačno
Delno oblačno
 Veter iz smeri SZ
Veter: SZ 9 km/h
Temperatura: 4°C
Občutek mraza zaradi vetra: 2°C
Rosišče: 3°C
Vlažnost: 93%
Tlak: 1022 hPa
Oblačnost: Delno oblačno
Vidljivost: 6 km
Podrobnosti o oblakih: Delno oblačno 488 m
2017/11/24 05:20 LIPZ 240520Z 32005KT 6000 SCT016 04/03 Q1022 NOSIG
LHSM - Balaton, Hungary
Oddaljenost od postaje: VSV 177km
Podatki zajeti: 24/11/2017 05:45
Megla, Oblačno
Megla, Oblačno
 Veter iz smeri SZ
Veter: SZ 4 km/h
Temperatura: 4°C
Rosišče: 4°C
Vlažnost: 100%
Tlak: 1020 hPa
Stanje: Megla
Oblačnost: Oblačno
Vidljivost: 1 km
Podrobnosti o oblakih: Oblačno 61 m
2017/11/24 04:45 LHSM 240445Z 32002KT 0600 FG OVC002 04/04 Q1020